sensor_id;sensor_type;location;lat;lon;timestamp;P1;durP1;ratioP1;P2;durP2;ratioP2
7657;SDS011;8462;53.156;8.220;2023-12-20T00:00:34;11.00;;;3.67;;
7657;SDS011;8462;53.156;8.220;2023-12-20T00:03:02;9.90;;;2.80;;
7657;SDS011;8462;53.156;8.220;2023-12-20T00:05:30;11.80;;;2.70;;
7657;SDS011;8462;53.156;8.220;2023-12-20T00:07:57;10.97;;;3.03;;
7657;SDS011;8462;53.156;8.220;2023-12-20T00:10:25;11.10;;;2.93;;
7657;SDS011;8462;53.156;8.220;2023-12-20T00:12:54;11.13;;;3.17;;
7657;SDS011;8462;53.156;8.220;2023-12-20T00:15:21;8.63;;;2.30;;
7657;SDS011;8462;53.156;8.220;2023-12-20T00:17:48;10.23;;;2.33;;
7657;SDS011;8462;53.156;8.220;2023-12-20T00:20:15;13.57;;;2.97;;
7657;SDS011;8462;53.156;8.220;2023-12-20T00:22:42;10.97;;;3.00;;
7657;SDS011;8462;53.156;8.220;2023-12-20T00:25:09;11.57;;;2.73;;
7657;SDS011;8462;53.156;8.220;2023-12-20T00:27:36;7.53;;;2.30;;
7657;SDS011;8462;53.156;8.220;2023-12-20T00:30:05;16.23;;;3.70;;
7657;SDS011;8462;53.156;8.220;2023-12-20T00:32:32;9.40;;;2.37;;
7657;SDS011;8462;53.156;8.220;2023-12-20T00:35:00;6.87;;;2.30;;
7657;SDS011;8462;53.156;8.220;2023-12-20T00:37:27;9.87;;;2.90;;
7657;SDS011;8462;53.156;8.220;2023-12-20T00:39:54;10.60;;;2.40;;
7657;SDS011;8462;53.156;8.220;2023-12-20T00:42:25;9.63;;;2.57;;
7657;SDS011;8462;53.156;8.220;2023-12-20T00:44:55;7.33;;;2.27;;
7657;SDS011;8462;53.156;8.220;2023-12-20T00:47:23;8.07;;;2.27;;
7657;SDS011;8462;53.156;8.220;2023-12-20T00:49:51;9.07;;;2.93;;
7657;SDS011;8462;53.156;8.220;2023-12-20T00:52:18;12.17;;;3.07;;
7657;SDS011;8462;53.156;8.220;2023-12-20T00:54:47;9.47;;;2.40;;
7657;SDS011;8462;53.156;8.220;2023-12-20T00:57:14;9.13;;;2.53;;
7657;SDS011;8462;53.156;8.220;2023-12-20T00:59:41;8.90;;;2.23;;
7657;SDS011;8462;53.156;8.220;2023-12-20T01:02:08;11.90;;;3.43;;
7657;SDS011;8462;53.156;8.220;2023-12-20T01:04:39;11.90;;;2.87;;
7657;SDS011;8462;53.156;8.220;2023-12-20T01:07:05;10.30;;;3.07;;
7657;SDS011;8462;53.156;8.220;2023-12-20T01:09:38;9.07;;;2.07;;
7657;SDS011;8462;53.156;8.220;2023-12-20T01:12:05;13.33;;;3.23;;
7657;SDS011;8462;53.156;8.220;2023-12-20T01:14:32;9.67;;;2.03;;
7657;SDS011;8462;53.156;8.220;2023-12-20T01:16:59;7.30;;;1.70;;
7657;SDS011;8462;53.156;8.220;2023-12-20T01:19:26;8.70;;;2.60;;
7657;SDS011;8462;53.156;8.220;2023-12-20T01:21:56;12.13;;;3.80;;
7657;SDS011;8462;53.156;8.220;2023-12-20T01:24:23;7.63;;;2.30;;
7657;SDS011;8462;53.156;8.220;2023-12-20T01:26:51;9.20;;;2.30;;
7657;SDS011;8462;53.156;8.220;2023-12-20T01:29:18;7.77;;;2.50;;
7657;SDS011;8462;53.156;8.220;2023-12-20T01:31:45;6.97;;;2.20;;
7657;SDS011;8462;53.156;8.220;2023-12-20T01:34:12;9.37;;;2.30;;
7657;SDS011;8462;53.156;8.220;2023-12-20T01:36:39;9.13;;;1.90;;
7657;SDS011;8462;53.156;8.220;2023-12-20T01:39:07;6.17;;;2.10;;
7657;SDS011;8462;53.156;8.220;2023-12-20T01:41:34;10.37;;;2.17;;
7657;SDS011;8462;53.156;8.220;2023-12-20T01:44:01;5.63;;;1.93;;
7657;SDS011;8462;53.156;8.220;2023-12-20T01:46:29;10.33;;;2.43;;
7657;SDS011;8462;53.156;8.220;2023-12-20T01:48:56;8.63;;;2.47;;
7657;SDS011;8462;53.156;8.220;2023-12-20T01:51:24;12.13;;;2.77;;
7657;SDS011;8462;53.156;8.220;2023-12-20T01:53:52;9.80;;;2.57;;
7657;SDS011;8462;53.156;8.220;2023-12-20T01:56:22;9.70;;;3.27;;
7657;SDS011;8462;53.156;8.220;2023-12-20T01:58:50;8.67;;;2.13;;
7657;SDS011;8462;53.156;8.220;2023-12-20T02:01:18;7.17;;;1.97;;
7657;SDS011;8462;53.156;8.220;2023-12-20T02:03:46;6.67;;;2.30;;
7657;SDS011;8462;53.156;8.220;2023-12-20T02:06:14;6.10;;;2.53;;
7657;SDS011;8462;53.156;8.220;2023-12-20T02:08:42;9.20;;;2.40;;
7657;SDS011;8462;53.156;8.220;2023-12-20T02:11:09;13.57;;;2.97;;
7657;SDS011;8462;53.156;8.220;2023-12-20T02:13:38;9.40;;;2.50;;
7657;SDS011;8462;53.156;8.220;2023-12-20T02:16:05;10.83;;;2.80;;
7657;SDS011;8462;53.156;8.220;2023-12-20T02:18:32;6.20;;;2.47;;
7657;SDS011;8462;53.156;8.220;2023-12-20T02:20:59;10.63;;;2.43;;
7657;SDS011;8462;53.156;8.220;2023-12-20T02:23:29;11.87;;;2.77;;
7657;SDS011;8462;53.156;8.220;2023-12-20T02:25:56;7.53;;;2.90;;
7657;SDS011;8462;53.156;8.220;2023-12-20T02:28:23;10.57;;;2.40;;
7657;SDS011;8462;53.156;8.220;2023-12-20T02:30:50;9.07;;;2.47;;
7657;SDS011;8462;53.156;8.220;2023-12-20T02:33:17;9.17;;;2.30;;
7657;SDS011;8462;53.156;8.220;2023-12-20T02:35:44;7.63;;;2.77;;
7657;SDS011;8462;53.156;8.220;2023-12-20T02:38:11;9.97;;;2.53;;
7657;SDS011;8462;53.156;8.220;2023-12-20T02:40:39;8.30;;;2.40;;
7657;SDS011;8462;53.156;8.220;2023-12-20T02:43:06;7.07;;;2.50;;
7657;SDS011;8462;53.156;8.220;2023-12-20T02:45:33;9.97;;;2.97;;
7657;SDS011;8462;53.156;8.220;2023-12-20T02:48:00;10.47;;;2.43;;
7657;SDS011;8462;53.156;8.220;2023-12-20T02:50:29;8.37;;;3.13;;
7657;SDS011;8462;53.156;8.220;2023-12-20T02:52:56;10.53;;;3.07;;
7657;SDS011;8462;53.156;8.220;2023-12-20T02:55:23;13.07;;;3.10;;
7657;SDS011;8462;53.156;8.220;2023-12-20T02:57:51;10.03;;;2.90;;
7657;SDS011;8462;53.156;8.220;2023-12-20T03:00:18;15.63;;;3.20;;
7657;SDS011;8462;53.156;8.220;2023-12-20T03:02:45;6.40;;;2.10;;
7657;SDS011;8462;53.156;8.220;2023-12-20T03:05:14;12.13;;;2.97;;
7657;SDS011;8462;53.156;8.220;2023-12-20T03:07:41;11.00;;;2.57;;
7657;SDS011;8462;53.156;8.220;2023-12-20T03:10:08;17.93;;;3.00;;
7657;SDS011;8462;53.156;8.220;2023-12-20T03:12:37;11.43;;;2.60;;
7657;SDS011;8462;53.156;8.220;2023-12-20T03:15:05;12.63;;;2.83;;
7657;SDS011;8462;53.156;8.220;2023-12-20T03:17:33;10.90;;;2.57;;
7657;SDS011;8462;53.156;8.220;2023-12-20T03:20:00;11.30;;;2.63;;
7657;SDS011;8462;53.156;8.220;2023-12-20T03:22:28;9.90;;;2.83;;
7657;SDS011;8462;53.156;8.220;2023-12-20T03:24:55;8.20;;;2.30;;
7657;SDS011;8462;53.156;8.220;2023-12-20T03:27:22;11.20;;;2.97;;
7657;SDS011;8462;53.156;8.220;2023-12-20T03:29:49;12.90;;;3.13;;
7657;SDS011;8462;53.156;8.220;2023-12-20T03:32:17;10.73;;;3.07;;
7657;SDS011;8462;53.156;8.220;2023-12-20T03:34:44;15.27;;;2.87;;
7657;SDS011;8462;53.156;8.220;2023-12-20T03:37:11;9.73;;;2.93;;
7657;SDS011;8462;53.156;8.220;2023-12-20T03:39:38;7.70;;;2.63;;
7657;SDS011;8462;53.156;8.220;2023-12-20T03:42:05;10.27;;;3.03;;
7657;SDS011;8462;53.156;8.220;2023-12-20T03:44:33;10.23;;;3.03;;
7657;SDS011;8462;53.156;8.220;2023-12-20T03:47:00;10.60;;;2.73;;
7657;SDS011;8462;53.156;8.220;2023-12-20T03:49:28;13.60;;;4.43;;
7657;SDS011;8462;53.156;8.220;2023-12-20T03:51:55;10.10;;;2.47;;
7657;SDS011;8462;53.156;8.220;2023-12-20T03:54:22;11.17;;;2.67;;
7657;SDS011;8462;53.156;8.220;2023-12-20T03:56:50;11.60;;;3.17;;
7657;SDS011;8462;53.156;8.220;2023-12-20T03:59:17;8.37;;;2.30;;
7657;SDS011;8462;53.156;8.220;2023-12-20T04:01:44;5.20;;;2.23;;
7657;SDS011;8462;53.156;8.220;2023-12-20T04:04:12;9.73;;;2.47;;
7657;SDS011;8462;53.156;8.220;2023-12-20T04:06:41;10.23;;;2.40;;
7657;SDS011;8462;53.156;8.220;2023-12-20T04:09:08;10.70;;;2.57;;
7657;SDS011;8462;53.156;8.220;2023-12-20T04:11:36;7.20;;;2.10;;
7657;SDS011;8462;53.156;8.220;2023-12-20T04:14:04;12.50;;;2.50;;
7657;SDS011;8462;53.156;8.220;2023-12-20T04:16:32;8.37;;;2.40;;
7657;SDS011;8462;53.156;8.220;2023-12-20T04:18:59;9.20;;;2.47;;
7657;SDS011;8462;53.156;8.220;2023-12-20T04:21:26;9.00;;;2.57;;
7657;SDS011;8462;53.156;8.220;2023-12-20T04:23:54;12.93;;;3.27;;
7657;SDS011;8462;53.156;8.220;2023-12-20T04:26:21;17.47;;;2.70;;
7657;SDS011;8462;53.156;8.220;2023-12-20T04:28:49;13.60;;;2.57;;
7657;SDS011;8462;53.156;8.220;2023-12-20T04:31:16;14.67;;;2.80;;
7657;SDS011;8462;53.156;8.220;2023-12-20T04:33:43;13.53;;;2.90;;
7657;SDS011;8462;53.156;8.220;2023-12-20T04:36:10;12.43;;;3.47;;
7657;SDS011;8462;53.156;8.220;2023-12-20T04:38:37;10.13;;;2.47;;
7657;SDS011;8462;53.156;8.220;2023-12-20T04:41:06;10.60;;;2.67;;
7657;SDS011;8462;53.156;8.220;2023-12-20T04:43:33;13.27;;;3.20;;
7657;SDS011;8462;53.156;8.220;2023-12-20T04:46:00;10.80;;;3.10;;
7657;SDS011;8462;53.156;8.220;2023-12-20T04:48:27;9.23;;;3.00;;
7657;SDS011;8462;53.156;8.220;2023-12-20T04:50:54;8.67;;;3.10;;
7657;SDS011;8462;53.156;8.220;2023-12-20T04:53:21;13.80;;;3.30;;
7657;SDS011;8462;53.156;8.220;2023-12-20T04:55:48;12.57;;;3.00;;
7657;SDS011;8462;53.156;8.220;2023-12-20T04:58:16;19.40;;;3.63;;
7657;SDS011;8462;53.156;8.220;2023-12-20T05:00:43;13.47;;;3.43;;
7657;SDS011;8462;53.156;8.220;2023-12-20T05:03:09;15.07;;;3.60;;
7657;SDS011;8462;53.156;8.220;2023-12-20T05:05:39;12.50;;;3.77;;
7657;SDS011;8462;53.156;8.220;2023-12-20T05:08:06;15.30;;;3.87;;
7657;SDS011;8462;53.156;8.220;2023-12-20T05:10:33;11.20;;;3.27;;
7657;SDS011;8462;53.156;8.220;2023-12-20T05:13:01;11.60;;;3.07;;
7657;SDS011;8462;53.156;8.220;2023-12-20T05:15:31;12.90;;;3.63;;
7657;SDS011;8462;53.156;8.220;2023-12-20T05:17:58;13.87;;;3.40;;
7657;SDS011;8462;53.156;8.220;2023-12-20T05:20:25;11.10;;;3.90;;
7657;SDS011;8462;53.156;8.220;2023-12-20T05:22:52;15.97;;;3.33;;
7657;SDS011;8462;53.156;8.220;2023-12-20T05:25:19;12.53;;;3.87;;
7657;SDS011;8462;53.156;8.220;2023-12-20T05:27:45;11.53;;;3.40;;
7657;SDS011;8462;53.156;8.220;2023-12-20T05:30:13;23.00;;;3.70;;
7657;SDS011;8462;53.156;8.220;2023-12-20T05:32:41;16.70;;;3.93;;
7657;SDS011;8462;53.156;8.220;2023-12-20T05:35:08;11.17;;;3.10;;
7657;SDS011;8462;53.156;8.220;2023-12-20T05:37:35;13.40;;;4.03;;
7657;SDS011;8462;53.156;8.220;2023-12-20T05:40:02;14.43;;;3.77;;
7657;SDS011;8462;53.156;8.220;2023-12-20T05:42:30;21.63;;;4.27;;
7657;SDS011;8462;53.156;8.220;2023-12-20T05:44:57;17.00;;;3.67;;
7657;SDS011;8462;53.156;8.220;2023-12-20T05:47:24;12.93;;;3.50;;
7657;SDS011;8462;53.156;8.220;2023-12-20T05:49:52;9.73;;;3.30;;
7657;SDS011;8462;53.156;8.220;2023-12-20T05:52:19;16.27;;;3.63;;
7657;SDS011;8462;53.156;8.220;2023-12-20T05:54:47;12.97;;;3.80;;
7657;SDS011;8462;53.156;8.220;2023-12-20T05:57:14;17.60;;;4.63;;
7657;SDS011;8462;53.156;8.220;2023-12-20T05:59:41;16.77;;;4.60;;
7657;SDS011;8462;53.156;8.220;2023-12-20T06:02:08;21.00;;;4.40;;
7657;SDS011;8462;53.156;8.220;2023-12-20T06:04:35;16.97;;;4.20;;
7657;SDS011;8462;53.156;8.220;2023-12-20T06:07:04;23.23;;;4.33;;
7657;SDS011;8462;53.156;8.220;2023-12-20T06:09:30;18.33;;;4.10;;
7657;SDS011;8462;53.156;8.220;2023-12-20T06:11:57;18.63;;;4.40;;
7657;SDS011;8462;53.156;8.220;2023-12-20T06:14:26;17.80;;;4.20;;
7657;SDS011;8462;53.156;8.220;2023-12-20T06:16:53;17.03;;;4.17;;
7657;SDS011;8462;53.156;8.220;2023-12-20T06:19:20;13.87;;;4.17;;
7657;SDS011;8462;53.156;8.220;2023-12-20T06:21:48;19.37;;;4.70;;
7657;SDS011;8462;53.156;8.220;2023-12-20T06:24:16;18.60;;;5.33;;
7657;SDS011;8462;53.156;8.220;2023-12-20T06:26:43;19.77;;;4.43;;
7657;SDS011;8462;53.156;8.220;2023-12-20T06:29:11;14.63;;;3.77;;
7657;SDS011;8462;53.156;8.220;2023-12-20T06:31:38;15.37;;;4.27;;
7657;SDS011;8462;53.156;8.220;2023-12-20T06:34:05;16.50;;;4.17;;
7657;SDS011;8462;53.156;8.220;2023-12-20T06:36:32;18.50;;;4.50;;
7657;SDS011;8462;53.156;8.220;2023-12-20T06:38:59;14.87;;;4.90;;
7657;SDS011;8462;53.156;8.220;2023-12-20T06:41:28;20.67;;;4.50;;
7657;SDS011;8462;53.156;8.220;2023-12-20T06:43:55;19.00;;;4.43;;
7657;SDS011;8462;53.156;8.220;2023-12-20T06:46:22;16.43;;;4.40;;
7657;SDS011;8462;53.156;8.220;2023-12-20T06:48:50;17.10;;;3.83;;
7657;SDS011;8462;53.156;8.220;2023-12-20T06:51:17;14.23;;;4.33;;
7657;SDS011;8462;53.156;8.220;2023-12-20T06:53:45;14.00;;;4.27;;
7657;SDS011;8462;53.156;8.220;2023-12-20T06:56:11;12.97;;;4.27;;
7657;SDS011;8462;53.156;8.220;2023-12-20T06:58:40;15.47;;;4.37;;
7657;SDS011;8462;53.156;8.220;2023-12-20T07:01:10;12.30;;;3.73;;
7657;SDS011;8462;53.156;8.220;2023-12-20T07:03:38;14.57;;;3.67;;
7657;SDS011;8462;53.156;8.220;2023-12-20T07:06:05;13.47;;;4.07;;
7657;SDS011;8462;53.156;8.220;2023-12-20T07:08:32;18.97;;;4.73;;
7657;SDS011;8462;53.156;8.220;2023-12-20T07:10:59;19.47;;;5.07;;
7657;SDS011;8462;53.156;8.220;2023-12-20T07:13:26;13.40;;;4.33;;
7657;SDS011;8462;53.156;8.220;2023-12-20T07:15:55;13.87;;;3.77;;
7657;SDS011;8462;53.156;8.220;2023-12-20T07:18:23;18.70;;;4.77;;
7657;SDS011;8462;53.156;8.220;2023-12-20T07:20:50;22.73;;;4.47;;
7657;SDS011;8462;53.156;8.220;2023-12-20T07:23:17;15.30;;;4.40;;
7657;SDS011;8462;53.156;8.220;2023-12-20T07:25:45;16.47;;;5.23;;
7657;SDS011;8462;53.156;8.220;2023-12-20T07:28:12;17.90;;;4.43;;
7657;SDS011;8462;53.156;8.220;2023-12-20T07:30:39;18.77;;;5.17;;
7657;SDS011;8462;53.156;8.220;2023-12-20T07:33:08;14.70;;;4.10;;
7657;SDS011;8462;53.156;8.220;2023-12-20T07:35:37;14.00;;;3.77;;
7657;SDS011;8462;53.156;8.220;2023-12-20T07:38:04;18.03;;;4.97;;
7657;SDS011;8462;53.156;8.220;2023-12-20T07:40:31;12.70;;;4.47;;
7657;SDS011;8462;53.156;8.220;2023-12-20T07:42:59;18.40;;;4.50;;
7657;SDS011;8462;53.156;8.220;2023-12-20T07:45:26;18.70;;;4.97;;
7657;SDS011;8462;53.156;8.220;2023-12-20T07:47:53;14.60;;;4.57;;
7657;SDS011;8462;53.156;8.220;2023-12-20T07:50:21;11.63;;;4.80;;
7657;SDS011;8462;53.156;8.220;2023-12-20T07:52:48;17.60;;;5.13;;
7657;SDS011;8462;53.156;8.220;2023-12-20T07:55:15;19.10;;;4.63;;
7657;SDS011;8462;53.156;8.220;2023-12-20T07:57:42;14.03;;;4.50;;
7657;SDS011;8462;53.156;8.220;2023-12-20T08:00:10;14.90;;;4.20;;
7657;SDS011;8462;53.156;8.220;2023-12-20T08:02:37;10.93;;;3.70;;
7657;SDS011;8462;53.156;8.220;2023-12-20T08:05:04;17.07;;;4.27;;
7657;SDS011;8462;53.156;8.220;2023-12-20T08:07:33;13.40;;;4.10;;
7657;SDS011;8462;53.156;8.220;2023-12-20T08:10:00;13.57;;;3.63;;
7657;SDS011;8462;53.156;8.220;2023-12-20T08:12:27;15.97;;;3.93;;
7657;SDS011;8462;53.156;8.220;2023-12-20T08:14:54;13.53;;;3.57;;
7657;SDS011;8462;53.156;8.220;2023-12-20T08:17:22;19.37;;;4.63;;
7657;SDS011;8462;53.156;8.220;2023-12-20T08:19:50;16.60;;;4.17;;
7657;SDS011;8462;53.156;8.220;2023-12-20T08:22:18;13.53;;;4.23;;
7657;SDS011;8462;53.156;8.220;2023-12-20T08:24:46;16.17;;;5.40;;
7657;SDS011;8462;53.156;8.220;2023-12-20T08:27:14;12.00;;;4.47;;
7657;SDS011;8462;53.156;8.220;2023-12-20T08:29:43;13.80;;;4.20;;
7657;SDS011;8462;53.156;8.220;2023-12-20T08:32:11;17.33;;;3.80;;
7657;SDS011;8462;53.156;8.220;2023-12-20T08:37:12;20.63;;;4.90;;
7657;SDS011;8462;53.156;8.220;2023-12-20T08:39:39;17.53;;;4.93;;
7657;SDS011;8462;53.156;8.220;2023-12-20T08:42:07;16.60;;;3.60;;
7657;SDS011;8462;53.156;8.220;2023-12-20T08:44:36;19.23;;;4.83;;
7657;SDS011;8462;53.156;8.220;2023-12-20T08:47:03;14.53;;;3.83;;
7657;SDS011;8462;53.156;8.220;2023-12-20T08:49:31;15.97;;;4.20;;
7657;SDS011;8462;53.156;8.220;2023-12-20T08:51:59;19.77;;;4.27;;
7657;SDS011;8462;53.156;8.220;2023-12-20T08:54:26;21.87;;;4.87;;
7657;SDS011;8462;53.156;8.220;2023-12-20T08:56:55;12.83;;;4.53;;
7657;SDS011;8462;53.156;8.220;2023-12-20T08:59:24;12.77;;;4.27;;
7657;SDS011;8462;53.156;8.220;2023-12-20T09:04:27;13.67;;;4.50;;
7657;SDS011;8462;53.156;8.220;2023-12-20T09:06:54;18.63;;;4.33;;
7657;SDS011;8462;53.156;8.220;2023-12-20T09:09:22;25.13;;;5.00;;
7657;SDS011;8462;53.156;8.220;2023-12-20T09:11:49;14.50;;;4.40;;
7657;SDS011;8462;53.156;8.220;2023-12-20T09:14:18;19.00;;;4.80;;
7657;SDS011;8462;53.156;8.220;2023-12-20T09:16:46;15.17;;;4.20;;
7657;SDS011;8462;53.156;8.220;2023-12-20T09:19:16;7.00;;;3.13;;
7657;SDS011;8462;53.156;8.220;2023-12-20T09:21:44;13.93;;;3.57;;
7657;SDS011;8462;53.156;8.220;2023-12-20T09:24:11;10.40;;;2.37;;
7657;SDS011;8462;53.156;8.220;2023-12-20T09:26:40;4.50;;;1.50;;
7657;SDS011;8462;53.156;8.220;2023-12-20T09:29:08;3.93;;;1.23;;
7657;SDS011;8462;53.156;8.220;2023-12-20T09:31:40;4.43;;;1.83;;
7657;SDS011;8462;53.156;8.220;2023-12-20T09:34:11;7.90;;;1.40;;
7657;SDS011;8462;53.156;8.220;2023-12-20T09:36:39;6.87;;;1.53;;
7657;SDS011;8462;53.156;8.220;2023-12-20T09:39:12;2.83;;;1.20;;
7657;SDS011;8462;53.156;8.220;2023-12-20T09:41:42;4.73;;;1.10;;
7657;SDS011;8462;53.156;8.220;2023-12-20T09:44:13;6.13;;;1.50;;
7657;SDS011;8462;53.156;8.220;2023-12-20T09:46:43;6.63;;;1.30;;
7657;SDS011;8462;53.156;8.220;2023-12-20T09:49:13;4.13;;;1.33;;
7657;SDS011;8462;53.156;8.220;2023-12-20T09:51:42;4.10;;;1.17;;
7657;SDS011;8462;53.156;8.220;2023-12-20T09:54:10;7.97;;;1.50;;
7657;SDS011;8462;53.156;8.220;2023-12-20T09:56:38;3.93;;;1.30;;
7657;SDS011;8462;53.156;8.220;2023-12-20T09:59:05;6.10;;;1.60;;
7657;SDS011;8462;53.156;8.220;2023-12-20T10:01:35;2.47;;;1.10;;
7657;SDS011;8462;53.156;8.220;2023-12-20T10:04:02;5.40;;;1.27;;
7657;SDS011;8462;53.156;8.220;2023-12-20T10:06:36;5.17;;;1.73;;
7657;SDS011;8462;53.156;8.220;2023-12-20T10:09:03;4.93;;;1.67;;
7657;SDS011;8462;53.156;8.220;2023-12-20T10:11:30;3.20;;;1.30;;
7657;SDS011;8462;53.156;8.220;2023-12-20T10:14:00;5.80;;;1.47;;
7657;SDS011;8462;53.156;8.220;2023-12-20T10:16:27;8.97;;;1.73;;
7657;SDS011;8462;53.156;8.220;2023-12-20T10:18:54;2.97;;;1.30;;
7657;SDS011;8462;53.156;8.220;2023-12-20T10:21:22;6.27;;;1.17;;
7657;SDS011;8462;53.156;8.220;2023-12-20T10:23:52;4.60;;;1.53;;
7657;SDS011;8462;53.156;8.220;2023-12-20T10:26:20;3.63;;;1.40;;
7657;SDS011;8462;53.156;8.220;2023-12-20T10:28:50;5.97;;;1.50;;
7657;SDS011;8462;53.156;8.220;2023-12-20T10:31:28;8.03;;;1.50;;
7657;SDS011;8462;53.156;8.220;2023-12-20T10:33:57;4.00;;;1.30;;
7657;SDS011;8462;53.156;8.220;2023-12-20T10:36:25;2.90;;;1.23;;
7657;SDS011;8462;53.156;8.220;2023-12-20T10:38:55;4.73;;;1.30;;
7657;SDS011;8462;53.156;8.220;2023-12-20T10:41:25;5.03;;;1.43;;
7657;SDS011;8462;53.156;8.220;2023-12-20T10:43:58;6.33;;;1.50;;
7657;SDS011;8462;53.156;8.220;2023-12-20T10:46:26;7.27;;;1.50;;
7657;SDS011;8462;53.156;8.220;2023-12-20T10:48:53;4.27;;;1.47;;
7657;SDS011;8462;53.156;8.220;2023-12-20T10:51:21;7.70;;;1.50;;
7657;SDS011;8462;53.156;8.220;2023-12-20T10:53:49;5.67;;;1.33;;
7657;SDS011;8462;53.156;8.220;2023-12-20T10:56:18;5.93;;;2.00;;
7657;SDS011;8462;53.156;8.220;2023-12-20T10:58:46;5.90;;;1.60;;
7657;SDS011;8462;53.156;8.220;2023-12-20T11:01:16;7.30;;;1.37;;
7657;SDS011;8462;53.156;8.220;2023-12-20T11:03:47;5.73;;;2.03;;
7657;SDS011;8462;53.156;8.220;2023-12-20T11:06:19;5.73;;;2.03;;
7657;SDS011;8462;53.156;8.220;2023-12-20T11:09:03;6.03;;;2.10;;
7657;SDS011;8462;53.156;8.220;2023-12-20T11:11:42;6.27;;;1.83;;
7657;SDS011;8462;53.156;8.220;2023-12-20T11:14:23;3.90;;;1.50;;
7657;SDS011;8462;53.156;8.220;2023-12-20T11:17:04;4.33;;;1.67;;
7657;SDS011;8462;53.156;8.220;2023-12-20T11:19:32;6.63;;;1.67;;
7657;SDS011;8462;53.156;8.220;2023-12-20T11:22:10;5.87;;;1.80;;
7657;SDS011;8462;53.156;8.220;2023-12-20T11:24:38;5.80;;;1.73;;
7657;SDS011;8462;53.156;8.220;2023-12-20T11:27:13;5.40;;;1.97;;
7657;SDS011;8462;53.156;8.220;2023-12-20T11:29:40;5.93;;;1.87;;
7657;SDS011;8462;53.156;8.220;2023-12-20T11:34:55;6.50;;;2.03;;
7657;SDS011;8462;53.156;8.220;2023-12-20T11:37:28;6.17;;;2.17;;
7657;SDS011;8462;53.156;8.220;2023-12-20T11:40:00;7.57;;;1.90;;
7657;SDS011;8462;53.156;8.220;2023-12-20T11:42:33;8.43;;;1.87;;
7657;SDS011;8462;53.156;8.220;2023-12-20T11:45:05;8.30;;;1.80;;
7657;SDS011;8462;53.156;8.220;2023-12-20T11:47:35;5.73;;;1.70;;
7657;SDS011;8462;53.156;8.220;2023-12-20T11:50:03;10.53;;;3.13;;
7657;SDS011;8462;53.156;8.220;2023-12-20T11:52:33;7.27;;;2.40;;
7657;SDS011;8462;53.156;8.220;2023-12-20T11:55:01;8.83;;;2.40;;
7657;SDS011;8462;53.156;8.220;2023-12-20T11:57:30;9.40;;;2.50;;
7657;SDS011;8462;53.156;8.220;2023-12-20T11:59:59;8.33;;;2.83;;
7657;SDS011;8462;53.156;8.220;2023-12-20T12:02:28;11.77;;;2.87;;
7657;SDS011;8462;53.156;8.220;2023-12-20T12:04:57;12.77;;;3.33;;
7657;SDS011;8462;53.156;8.220;2023-12-20T12:07:27;9.43;;;2.63;;
7657;SDS011;8462;53.156;8.220;2023-12-20T12:09:55;11.30;;;2.03;;
7657;SDS011;8462;53.156;8.220;2023-12-20T12:12:22;7.10;;;2.20;;
7657;SDS011;8462;53.156;8.220;2023-12-20T12:14:53;8.63;;;2.70;;
7657;SDS011;8462;53.156;8.220;2023-12-20T12:17:24;8.60;;;3.00;;
7657;SDS011;8462;53.156;8.220;2023-12-20T12:19:52;13.17;;;3.30;;
7657;SDS011;8462;53.156;8.220;2023-12-20T12:22:30;12.63;;;2.90;;
7657;SDS011;8462;53.156;8.220;2023-12-20T12:24:58;12.70;;;2.80;;
7657;SDS011;8462;53.156;8.220;2023-12-20T12:27:36;11.07;;;3.17;;
7657;SDS011;8462;53.156;8.220;2023-12-20T12:30:05;12.87;;;3.03;;
7657;SDS011;8462;53.156;8.220;2023-12-20T12:32:34;10.97;;;2.47;;
7657;SDS011;8462;53.156;8.220;2023-12-20T12:35:04;10.30;;;2.67;;
7657;SDS011;8462;53.156;8.220;2023-12-20T12:37:33;10.43;;;2.67;;
7657;SDS011;8462;53.156;8.220;2023-12-20T12:40:03;6.83;;;2.63;;
7657;SDS011;8462;53.156;8.220;2023-12-20T12:42:32;10.50;;;3.13;;
7657;SDS011;8462;53.156;8.220;2023-12-20T12:44:59;8.17;;;2.90;;
7657;SDS011;8462;53.156;8.220;2023-12-20T12:47:26;12.37;;;2.80;;
7657;SDS011;8462;53.156;8.220;2023-12-20T12:49:56;8.07;;;2.77;;
7657;SDS011;8462;53.156;8.220;2023-12-20T12:52:23;12.07;;;2.53;;
7657;SDS011;8462;53.156;8.220;2023-12-20T12:54:52;9.17;;;2.60;;
7657;SDS011;8462;53.156;8.220;2023-12-20T12:57:19;8.60;;;2.63;;
7657;SDS011;8462;53.156;8.220;2023-12-20T12:59:47;10.00;;;2.70;;
7657;SDS011;8462;53.156;8.220;2023-12-20T13:02:16;17.03;;;3.40;;
7657;SDS011;8462;53.156;8.220;2023-12-20T13:04:44;12.20;;;3.20;;
7657;SDS011;8462;53.156;8.220;2023-12-20T13:07:13;9.83;;;2.93;;
7657;SDS011;8462;53.156;8.220;2023-12-20T13:09:41;11.50;;;2.70;;
7657;SDS011;8462;53.156;8.220;2023-12-20T13:12:10;16.93;;;3.30;;
7657;SDS011;8462;53.156;8.220;2023-12-20T13:14:38;12.17;;;4.20;;
7657;SDS011;8462;53.156;8.220;2023-12-20T13:17:06;10.40;;;3.47;;
7657;SDS011;8462;53.156;8.220;2023-12-20T13:19:34;15.70;;;3.33;;
7657;SDS011;8462;53.156;8.220;2023-12-20T13:22:01;13.53;;;3.93;;
7657;SDS011;8462;53.156;8.220;2023-12-20T13:24:31;14.50;;;3.93;;
7657;SDS011;8462;53.156;8.220;2023-12-20T13:27:04;10.73;;;3.33;;
7657;SDS011;8462;53.156;8.220;2023-12-20T13:29:32;11.90;;;3.70;;
7657;SDS011;8462;53.156;8.220;2023-12-20T13:32:00;10.80;;;3.23;;
7657;SDS011;8462;53.156;8.220;2023-12-20T13:34:29;11.33;;;3.50;;
7657;SDS011;8462;53.156;8.220;2023-12-20T13:36:59;16.27;;;3.33;;
7657;SDS011;8462;53.156;8.220;2023-12-20T13:39:26;13.20;;;3.87;;
7657;SDS011;8462;53.156;8.220;2023-12-20T13:41:54;9.73;;;2.83;;
7657;SDS011;8462;53.156;8.220;2023-12-20T13:44:21;15.50;;;2.97;;
7657;SDS011;8462;53.156;8.220;2023-12-20T13:46:49;11.87;;;3.07;;
7657;SDS011;8462;53.156;8.220;2023-12-20T13:49:17;10.23;;;2.93;;
7657;SDS011;8462;53.156;8.220;2023-12-20T13:51:45;11.73;;;4.00;;
7657;SDS011;8462;53.156;8.220;2023-12-20T13:54:14;10.37;;;3.37;;
7657;SDS011;8462;53.156;8.220;2023-12-20T13:56:43;10.37;;;2.90;;
7657;SDS011;8462;53.156;8.220;2023-12-20T13:59:12;11.20;;;3.73;;
7657;SDS011;8462;53.156;8.220;2023-12-20T14:01:41;9.90;;;2.63;;
7657;SDS011;8462;53.156;8.220;2023-12-20T14:04:10;11.83;;;3.30;;
7657;SDS011;8462;53.156;8.220;2023-12-20T14:06:37;11.90;;;3.80;;
7657;SDS011;8462;53.156;8.220;2023-12-20T14:09:04;9.17;;;3.43;;
7657;SDS011;8462;53.156;8.220;2023-12-20T14:11:38;11.90;;;3.00;;
7657;SDS011;8462;53.156;8.220;2023-12-20T14:14:06;12.60;;;3.50;;
7657;SDS011;8462;53.156;8.220;2023-12-20T14:16:36;13.93;;;3.83;;
7657;SDS011;8462;53.156;8.220;2023-12-20T14:19:03;11.30;;;3.43;;
7657;SDS011;8462;53.156;8.220;2023-12-20T14:21:33;12.00;;;3.43;;
7657;SDS011;8462;53.156;8.220;2023-12-20T14:24:02;10.30;;;3.37;;
7657;SDS011;8462;53.156;8.220;2023-12-20T14:26:31;8.60;;;2.97;;
7657;SDS011;8462;53.156;8.220;2023-12-20T14:29:00;10.70;;;3.00;;
7657;SDS011;8462;53.156;8.220;2023-12-20T14:31:36;10.63;;;2.80;;
7657;SDS011;8462;53.156;8.220;2023-12-20T14:34:04;12.20;;;3.60;;
7657;SDS011;8462;53.156;8.220;2023-12-20T14:36:31;10.23;;;3.43;;
7657;SDS011;8462;53.156;8.220;2023-12-20T14:39:01;11.50;;;3.37;;
7657;SDS011;8462;53.156;8.220;2023-12-20T14:41:34;10.10;;;2.57;;
7657;SDS011;8462;53.156;8.220;2023-12-20T14:44:04;9.93;;;3.13;;
7657;SDS011;8462;53.156;8.220;2023-12-20T14:46:31;11.13;;;2.90;;
7657;SDS011;8462;53.156;8.220;2023-12-20T14:49:00;8.60;;;3.03;;
7657;SDS011;8462;53.156;8.220;2023-12-20T14:51:29;10.97;;;2.93;;
7657;SDS011;8462;53.156;8.220;2023-12-20T14:53:56;12.57;;;3.63;;
7657;SDS011;8462;53.156;8.220;2023-12-20T14:56:25;14.60;;;3.03;;
7657;SDS011;8462;53.156;8.220;2023-12-20T14:58:54;10.63;;;3.30;;
7657;SDS011;8462;53.156;8.220;2023-12-20T15:01:21;16.40;;;3.83;;
7657;SDS011;8462;53.156;8.220;2023-12-20T15:03:49;6.13;;;2.50;;
7657;SDS011;8462;53.156;8.220;2023-12-20T15:06:18;12.90;;;3.30;;
7657;SDS011;8462;53.156;8.220;2023-12-20T15:08:46;10.20;;;3.20;;
7657;SDS011;8462;53.156;8.220;2023-12-20T15:11:13;11.13;;;3.40;;
7657;SDS011;8462;53.156;8.220;2023-12-20T15:13:41;9.47;;;2.80;;
7657;SDS011;8462;53.156;8.220;2023-12-20T15:16:10;6.40;;;2.13;;
7657;SDS011;8462;53.156;8.220;2023-12-20T15:18:38;11.33;;;3.20;;
7657;SDS011;8462;53.156;8.220;2023-12-20T15:21:05;15.20;;;3.27;;